Time;durP1;ratioP1;P1;durP2;ratioP2;P2;SDS_P1;SDS_P2;PMS_P1;PMS_P2;Temp;Humidity;BMP_temperature;BMP_pressure;BME280_temperature;BME280_humidity;BME280_pressure;Samples;Min_cycle;Max_cycle;Signal;HPM_P1;HPM_P2
2021/12/03 00:01:12;;;;;;;0.20;0.20;;;;;;;-0.50;89.22;101184.16;5034358;28;20029;-69
2021/12/03 00:03:37;;;;;;;0.20;0.20;;;;;;;-0.47;89.18;101186.06;5032820;28;20295;-69
2021/12/03 00:06:05;;;;;;;0.30;0.30;;;;;;;-0.35;89.42;101187.03;5018351;28;20308;-69
2021/12/03 00:08:31;;;;;;;0.30;0.30;;;;;;;-0.31;89.33;101199.34;5026439;28;20030;-70
2021/12/03 00:11:01;;;;;;;0.40;0.40;;;;;;;-0.29;89.48;101191.75;5035861;28;20575;-69
2021/12/03 00:13:29;;;;;;;0.30;0.30;;;;;;;-0.28;89.37;101201.28;5031334;28;20283;-68
2021/12/03 00:15:56;;;;;;;0.20;0.20;;;;;;;-0.25;89.37;101195.47;5048113;28;20677;-71
2021/12/03 00:18:22;;;;;;;0.30;0.30;;;;;;;-0.19;89.16;101198.53;5051729;28;20562;-69
2021/12/03 00:20:49;;;;;;;0.30;0.30;;;;;;;-0.17;89.55;101197.84;5053195;28;20279;-70
2021/12/03 00:23:15;;;;;;;0.30;0.30;;;;;;;-0.12;89.58;101195.66;5056568;28;20059;-70
2021/12/03 00:25:40;;;;;;;0.30;0.30;;;;;;;-0.07;89.59;101196.00;5047467;28;20288;-70
2021/12/03 00:28:06;;;;;;;0.30;0.30;;;;;;;-0.08;89.33;101202.81;5045910;28;20388;-69
2021/12/03 00:30:33;;;;;;;0.33;0.33;;;;;;;-0.09;89.60;101205.28;5049598;28;20090;-69
2021/12/03 00:32:58;;;;;;;0.20;0.20;;;;;;;-0.12;89.01;101205.97;5055044;28;20067;-70
2021/12/03 00:35:24;;;;;;;0.40;0.40;;;;;;;-0.10;89.33;101195.75;5039563;28;20279;-68
2021/12/03 00:37:50;;;;;;;0.20;0.20;;;;;;;-0.11;89.02;101205.19;5029482;28;20391;-70
2021/12/03 00:40:21;;;;;;;0.30;0.30;;;;;;;-0.13;89.29;101201.56;5036590;28;20515;-70
2021/12/03 00:42:49;;;;;;;0.40;0.40;;;;;;;-0.15;89.28;101203.13;5049041;28;20375;-69
2021/12/03 00:45:15;;;;;;;0.30;0.30;;;;;;;-0.17;89.31;101204.69;5053372;28;20287;-70
2021/12/03 00:47:42;;;;;;;0.30;0.30;;;;;;;-0.20;89.35;101201.84;5043270;28;20275;-69
2021/12/03 00:50:10;;;;;;;0.40;0.40;;;;;;;-0.24;89.33;101203.31;5049023;28;20053;-69
2021/12/03 00:52:36;;;;;;;0.30;0.30;;;;;;;-0.26;89.44;101193.69;5053534;28;20280;-69
2021/12/03 00:55:03;;;;;;;0.40;0.40;;;;;;;-0.29;89.31;101202.06;5031396;28;20284;-70
2021/12/03 00:57:28;;;;;;;0.30;0.30;;;;;;;-0.32;89.07;101201.84;5054549;28;20052;-69
2021/12/03 00:59:54;;;;;;;0.30;0.30;;;;;;;-0.34;89.09;101199.13;5054548;28;20272;-69
2021/12/03 01:02:19;;;;;;;0.30;0.30;;;;;;;-0.36;89.35;101192.97;5032228;28;20075;-71
2021/12/03 01:04:46;;;;;;;0.20;0.20;;;;;;;-0.37;89.08;101200.56;5038051;28;20043;-71
2021/12/03 01:07:13;;;;;;;0.20;0.20;;;;;;;-0.40;89.19;101190.91;5052201;28;20029;-71
2021/12/03 01:09:38;;;;;;;0.40;0.40;;;;;;;-0.42;89.22;101180.50;5046073;28;20319;-71
2021/12/03 01:12:04;;;;;;;0.30;0.30;;;;;;;-0.42;89.22;101184.75;5059847;28;20614;-70
2021/12/03 01:14:30;;;;;;;0.30;0.30;;;;;;;-0.41;89.25;101186.56;5053574;28;20021;-70
2021/12/03 01:16:55;;;;;;;0.40;0.40;;;;;;;-0.42;89.34;101177.03;5050615;28;20044;-70
2021/12/03 01:19:21;;;;;;;0.20;0.20;;;;;;;-0.43;89.35;101181.28;5058398;28;20383;-70
2021/12/03 01:21:47;;;;;;;0.20;0.20;;;;;;;-0.43;89.37;101183.84;5055252;28;20036;-69
2021/12/03 01:24:12;;;;;;;0.30;0.30;;;;;;;-0.42;89.33;101187.34;5059223;28;20599;-70
2021/12/03 01:26:39;;;;;;;0.40;0.40;;;;;;;-0.41;89.34;101186.56;5034981;28;20284;-70
2021/12/03 01:29:05;;;;;;;0.30;0.30;;;;;;;-0.38;89.30;101185.91;5055160;28;20035;-69
2021/12/03 01:31:30;;;;;;;0.20;0.20;;;;;;;-0.33;89.46;101184.56;5038397;28;20298;-70
2021/12/03 01:33:56;;;;;;;0.30;0.30;;;;;;;-0.29;89.32;101186.63;5058870;28;20318;-70
2021/12/03 01:36:22;;;;;;;0.33;0.33;;;;;;;-0.18;89.63;101198.63;5043171;28;20029;-70
2021/12/03 01:38:48;;;;;;;0.10;0.10;;;;;;;-0.17;89.98;101194.41;5024833;28;20432;-70
2021/12/03 01:41:13;;;;;;;0.27;0.27;;;;;;;-0.19;89.35;101199.41;5014566;28;20314;-70
2021/12/03 01:43:39;;;;;;;0.17;0.17;;;;;;;-0.15;89.46;101196.31;5058497;28;20028;-69
2021/12/03 01:46:07;;;;;;;0.20;0.20;;;;;;;-0.13;89.55;101185.22;5049526;28;20045;-70
2021/12/03 01:48:34;;;;;;;0.20;0.20;;;;;;;-0.13;89.50;101185.22;5053195;28;20387;-70
2021/12/03 01:51:00;;;;;;;0.50;0.50;;;;;;;-0.12;89.58;101187.03;5054426;28;20290;-69
2021/12/03 01:53:28;;;;;;;0.30;0.30;;;;;;;-0.11;89.46;101178.50;5039730;28;20284;-70
2021/12/03 01:55:57;;;;;;;0.30;0.30;;;;;;;-0.12;89.47;101177.63;5028951;28;20284;-70
2021/12/03 01:58:23;;;;;;;0.30;0.30;;;;;;;-0.10;89.46;101176.06;5027015;28;20375;-71
2021/12/03 02:00:55;;;;;;;0.30;0.30;;;;;;;-0.07;89.52;101177.97;5036603;28;20861;-70
2021/12/03 02:03:25;;;;;;;0.30;0.30;;;;;;;-0.05;89.63;101173.84;5044699;28;20025;-70
2021/12/03 02:05:51;;;;;;;0.20;0.20;;;;;;;-0.01;89.63;101152.69;5052405;28;20280;-69
2021/12/03 02:08:17;;;;;;;0.30;0.30;;;;;;;0.01;89.44;101156.28;5024712;28;21258;-69
2021/12/03 02:10:44;;;;;;;0.30;0.30;;;;;;;0.03;89.58;101148.66;5036945;28;20318;-70
2021/12/03 02:13:11;;;;;;;0.30;0.30;;;;;;;0.02;89.64;101141.72;5038750;28;20539;-69
2021/12/03 02:15:37;;;;;;;0.20;0.20;;;;;;;0.02;89.47;101147.78;5037670;28;20287;-70
2021/12/03 02:18:03;;;;;;;0.23;0.23;;;;;;;0.03;89.45;101154.72;5018961;28;20299;-70
2021/12/03 02:20:29;;;;;;;0.27;0.27;;;;;;;0.04;89.70;101151.38;5020032;28;20288;-70
2021/12/03 02:22:55;;;;;;;0.20;0.20;;;;;;;0.06;89.52;101169.53;5010752;28;20315;-69
2021/12/03 02:25:24;;;;;;;0.20;0.20;;;;;;;0.07;89.52;101169.63;5037503;28;20284;-70
2021/12/03 02:27:53;;;;;;;0.20;0.20;;;;;;;0.08;89.55;101168.84;5028840;28;20060;-69
2021/12/03 02:30:19;;;;;;;0.30;0.30;;;;;;;0.09;89.63;101169.75;5038014;28;20709;-70
2021/12/03 02:32:45;;;;;;;0.30;0.30;;;;;;;0.08;89.69;101173.09;5037767;28;20291;-70
2021/12/03 02:35:10;;;;;;;0.40;0.40;;;;;;;0.10;89.61;101167.28;5049154;28;20279;-70
2021/12/03 02:37:37;;;;;;;0.20;0.20;;;;;;;0.11;89.48;101156.19;5025831;28;20065;-70
2021/12/03 02:40:05;;;;;;;0.20;0.20;;;;;;;0.12;89.52;101154.50;5054675;28;20045;-69
2021/12/03 02:42:30;;;;;;;0.30;0.30;;;;;;;0.12;89.45;101155.41;5052055;28;20284;-69
2021/12/03 02:44:56;;;;;;;0.40;0.40;;;;;;;0.12;89.65;101158.00;5038215;28;20539;-70
2021/12/03 02:47:29;;;;;;;0.30;0.30;;;;;;;0.11;89.55;101151.06;5043748;28;20033;-69
2021/12/03 02:49:54;;;;;;;0.20;0.20;;;;;;;0.13;89.55;101143.44;5021110;28;20257;-70
2021/12/03 02:52:20;;;;;;;0.37;0.37;;;;;;;0.13;89.67;101141.75;5037286;28;20688;-70
2021/12/03 02:54:45;;;;;;;0.17;0.17;;;;;;;0.17;89.72;101148.03;5020917;28;20021;-69
2021/12/03 02:57:11;;;;;;;0.30;0.30;;;;;;;0.26;89.60;101160.72;5036626;28;20127;-70
2021/12/03 02:59:36;;;;;;;0.23;0.23;;;;;;;0.31;89.69;101159.38;5038138;28;20021;-69
2021/12/03 03:02:03;;;;;;;0.30;0.30;;;;;;;0.40;89.65;101148.88;5030257;28;20458;-70
2021/12/03 03:04:28;;;;;;;0.20;0.20;;;;;;;0.52;89.73;101149.78;5036903;28;20044;-70
2021/12/03 03:06:54;;;;;;;0.17;0.17;;;;;;;0.62;89.77;101155.63;5038007;28;20674;-68
2021/12/03 03:09:19;;;;;;;0.20;0.20;;;;;;;0.63;89.63;101149.66;5036972;28;20285;-69
2021/12/03 03:11:46;;;;;;;0.20;0.20;;;;;;;0.63;89.56;101142.81;5038259;28;20087;-69
2021/12/03 03:14:11;;;;;;;0.30;0.30;;;;;;;0.76;89.55;101152.34;5035985;28;20321;-70
2021/12/03 03:16:37;;;;;;;0.20;0.20;;;;;;;0.83;89.51;101151.13;5017499;28;20725;-69
2021/12/03 03:19:10;;;;;;;0.10;0.10;;;;;;;0.90;89.58;101150.78;5017347;28;20045;-69
2021/12/03 03:21:35;;;;;;;0.87;0.87;;;;;;;1.02;89.48;101132.72;5018021;28;20274;-70
2021/12/03 03:24:01;;;;;;;0.20;0.20;;;;;;;1.12;89.33;101112.75;5017182;28;20291;-69
2021/12/03 03:26:27;;;;;;;0.30;0.30;;;;;;;1.19;89.14;101114.97;5018152;28;20301;-69
2021/12/03 03:28:56;;;;;;;0.20;0.20;;;;;;;1.23;88.84;101114.38;5017306;28;20285;-69
2021/12/03 03:31:21;;;;;;;0.20;0.20;;;;;;;1.28;88.14;101115.63;5016840;28;20052;-68
2021/12/03 03:33:46;;;;;;;0.10;0.10;;;;;;;1.33;88.24;101126.25;5017716;28;20265;-70
2021/12/03 03:36:18;;;;;;;0.13;0.13;;;;;;;1.44;88.21;101120.16;5025472;28;20380;-70
2021/12/03 03:38:43;;;;;;;0.10;0.10;;;;;;;1.45;88.03;101108.16;5018632;28;20033;-70
2021/12/03 03:41:09;;;;;;;0.30;0.30;;;;;;;1.52;87.81;101102.63;5029169;28;20284;-69
2021/12/03 03:43:34;;;;;;;0.30;0.30;;;;;;;1.61;87.31;101095.50;5037394;28;20351;-69
2021/12/03 03:46:00;;;;;;;0.23;0.23;;;;;;;1.67;87.05;101102.78;5036215;28;20131;-72
2021/12/03 03:48:25;;;;;;;0.20;0.20;;;;;;;1.74;86.77;101094.66;5037176;28;20056;-68
2021/12/03 03:50:51;;;;;;;0.27;0.27;;;;;;;1.78;86.58;101100.94;5037106;28;20043;-69
2021/12/03 03:53:17;;;;;;;0.40;0.40;;;;;;;1.76;86.28;101089.63;5037151;28;20370;-70
2021/12/03 03:55:42;;;;;;;0.10;0.10;;;;;;;1.79;86.28;101089.81;5031619;28;20296;-69
2021/12/03 03:58:08;;;;;;;0.20;0.20;;;;;;;1.89;85.97;101088.75;5017222;28;20029;-69
2021/12/03 04:00:38;;;;;;;0.30;0.30;;;;;;;1.87;86.09;101090.34;5033171;28;20032;-70
2021/12/03 04:03:04;;;;;;;0.30;0.30;;;;;;;1.96;86.26;101093.56;5036194;28;20284;-71
2021/12/03 04:05:29;;;;;;;0.30;0.30;;;;;;;1.96;85.93;101083.22;5034541;28;20826;-69
2021/12/03 04:07:55;;;;;;;0.13;0.13;;;;;;;2.05;86.05;101068.31;5022684;28;20030;-68
2021/12/03 04:10:21;;;;;;;0.20;0.20;;;;;;;2.08;86.03;101074.47;5026191;28;20030;-71
2021/12/03 04:12:47;;;;;;;0.10;0.10;;;;;;;2.10;86.12;101072.91;5017331;28;20564;-70
2021/12/03 04:15:13;;;;;;;0.30;0.30;;;;;;;2.11;85.96;101074.72;5016189;28;20036;-71
2021/12/03 04:17:39;;;;;;;0.20;0.20;;;;;;;2.05;86.11;101081.25;5032844;28;20037;-70
2021/12/03 04:20:07;;;;;;;0.30;0.30;;;;;;;2.01;86.24;101094.75;5036122;28;20295;-70
2021/12/03 04:22:34;;;;;;;0.20;0.20;;;;;;;1.97;86.34;101092.75;5030196;28;20284;-69
2021/12/03 04:24:59;;;;;;;0.10;0.10;;;;;;;1.94;86.47;101082.22;5019849;28;20296;-69
2021/12/03 04:27:25;;;;;;;0.20;0.20;;;;;;;1.92;86.52;101089.84;5025877;28;20523;-71
2021/12/03 04:29:50;;;;;;;0.20;0.20;;;;;;;1.93;86.56;101083.00;5036416;28;20120;-70
2021/12/03 04:32:17;;;;;;;0.20;0.20;;;;;;;1.90;87.07;101078.53;5022942;28;20049;-70
2021/12/03 04:34:44;;;;;;;0.30;0.30;;;;;;;1.90;86.67;101072.47;5017083;28;20097;-71
2021/12/03 04:37:10;;;;;;;0.20;0.20;;;;;;;1.89;87.00;101076.75;5021672;28;20304;-70
2021/12/03 04:39:35;;;;;;;0.20;0.20;;;;;;;1.89;87.01;101066.41;5027380;28;20291;-71
2021/12/03 04:42:01;;;;;;;0.30;0.30;;;;;;;1.92;87.01;101057.97;5033323;28;20305;-70
2021/12/03 04:44:26;;;;;;;0.23;0.23;;;;;;;1.90;87.06;101057.88;5016557;28;20033;-72
2021/12/03 04:46:52;;;;;;;0.40;0.40;;;;;;;1.93;87.10;101064.91;5031494;28;20554;-69
2021/12/03 04:49:17;;;;;;;0.10;0.10;;;;;;;1.95;87.09;101054.69;5034541;28;20052;-70
2021/12/03 04:51:43;;;;;;;0.30;0.30;;;;;;;1.98;87.04;101052.34;5015672;28;20025;-70
2021/12/03 04:54:08;;;;;;;0.20;0.20;;;;;;;2.03;86.81;101054.41;5028732;28;20104;-70
2021/12/03 04:56:34;;;;;;;0.20;0.20;;;;;;;2.03;86.64;101056.09;5035816;28;20025;-68
2021/12/03 04:58:59;;;;;;;0.30;0.30;;;;;;;2.06;86.63;101048.56;5017914;28;20038;-68
2021/12/03 05:01:24;;;;;;;0.30;0.30;;;;;;;2.13;86.63;101047.28;5016536;28;20034;-70
2021/12/03 05:03:50;;;;;;;0.20;0.20;;;;;;;2.17;86.62;101049.25;5018039;28;20028;-70
2021/12/03 05:06:19;;;;;;;0.27;0.27;;;;;;;2.19;86.37;101045.09;5016665;28;20392;-70
2021/12/03 05:08:45;;;;;;;0.10;0.10;;;;;;;2.18;86.00;101044.19;5028582;28;20037;-70
2021/12/03 05:11:10;;;;;;;0.30;0.30;;;;;;;2.17;86.24;101044.06;5016529;28;20288;-70
2021/12/03 05:13:36;;;;;;;0.20;0.20;;;;;;;2.18;86.18;101043.31;5015662;28;20045;-69
2021/12/03 05:16:04;;;;;;;0.30;0.30;;;;;;;2.16;85.95;101047.47;5016040;28;20106;-70
2021/12/03 05:18:30;;;;;;;0.20;0.20;;;;;;;2.17;86.41;101046.66;5016785;28;20285;-71
2021/12/03 05:20:59;;;;;;;0.10;0.10;;;;;;;2.17;86.35;101045.00;5016382;28;20289;-71
2021/12/03 05:23:26;;;;;;;0.20;0.20;;;;;;;2.22;86.13;101032.38;5024927;28;20431;-71
2021/12/03 05:25:52;;;;;;;0.30;0.30;;;;;;;2.26;86.01;101041.22;5018893;28;20319;-71
2021/12/03 05:28:18;;;;;;;0.10;0.10;;;;;;;2.26;86.07;101041.22;5036263;28;20390;-71
2021/12/03 05:30:43;;;;;;;0.30;0.30;;;;;;;2.35;85.70;101043.53;5036749;28;20419;-71
2021/12/03 05:33:09;;;;;;;0.10;0.10;;;;;;;2.39;85.49;101035.16;5036491;28;20400;-73
2021/12/03 05:35:35;;;;;;;0.20;0.20;;;;;;;2.42;85.31;101037.94;5034329;28;20021;-70
2021/12/03 05:38:01;;;;;;;0.27;0.27;;;;;;;2.38;85.54;101042.03;5033691;28;20034;-71
2021/12/03 05:40:26;;;;;;;0.23;0.23;;;;;;;2.39;85.32;101035.16;5015771;28;20414;-71
2021/12/03 05:42:55;;;;;;;0.20;0.20;;;;;;;2.47;85.00;101026.19;5035064;28;20314;-71
2021/12/03 05:45:25;;;;;;;0.30;0.30;;;;;;;2.51;84.91;101022.13;5034877;28;20083;-71
2021/12/03 05:47:52;;;;;;;0.23;0.23;;;;;;;2.51;84.64;101020.44;5035382;28;20524;-71
2021/12/03 05:50:18;;;;;;;0.20;0.20;;;;;;;2.56;84.53;101018.16;5027088;28;20296;-71
2021/12/03 05:52:44;;;;;;;0.37;0.37;;;;;;;2.55;83.91;101014.66;5034260;28;20337;-72
2021/12/03 05:55:10;;;;;;;0.30;0.30;;;;;;;2.56;84.10;101016.44;5039672;28;20681;-72
2021/12/03 05:57:36;;;;;;;0.23;0.23;;;;;;;2.60;83.76;101014.94;5032581;28;20038;-72
2021/12/03 06:00:07;;;;;;;0.37;0.37;;;;;;;2.59;83.67;101019.25;5019896;28;20350;-70
2021/12/03 06:02:33;;;;;;;0.30;0.30;;;;;;;2.55;83.73;101018.94;5019077;28;20022;-71
2021/12/03 06:04:58;;;;;;;0.27;0.27;;;;;;;2.58;84.21;101030.38;5018756;28;20307;-71
2021/12/03 06:07:24;;;;;;;0.30;0.30;;;;;;;2.60;83.80;101028.78;5022563;28;20287;-73
2021/12/03 06:09:49;;;;;;;0.30;0.30;;;;;;;2.56;83.99;101028.50;5034728;28;20037;-71
2021/12/03 06:12:15;;;;;;;0.30;0.30;;;;;;;2.63;83.75;101032.34;5039728;28;20032;-69
2021/12/03 06:14:40;;;;;;;0.20;0.20;;;;;;;2.70;83.18;101021.59;5039625;28;20297;-72
2021/12/03 06:17:06;;;;;;;0.30;0.30;;;;;;;2.65;83.42;101023.91;5036114;28;20033;-70
2021/12/03 06:19:31;;;;;;;0.30;0.30;;;;;;;2.69;83.19;101018.09;5019099;28;20033;-71
2021/12/03 06:21:57;;;;;;;0.30;0.30;;;;;;;2.68;83.16;101028.38;5018855;28;20282;-72
2021/12/03 06:24:22;;;;;;;0.30;0.30;;;;;;;2.72;83.22;101028.66;5018401;28;20117;-71
2021/12/03 06:26:47;;;;;;;0.30;0.30;;;;;;;2.70;82.68;101025.09;5019590;28;20029;-71
2021/12/03 06:29:13;;;;;;;0.30;0.30;;;;;;;2.72;82.43;101018.31;5018524;28;20061;-71
2021/12/03 06:31:41;;;;;;;0.20;0.20;;;;;;;2.71;82.98;101025.97;5020918;28;20026;-72
2021/12/03 06:34:07;;;;;;;0.20;0.20;;;;;;;2.70;82.90;101027.69;5032410;28;20036;-72
2021/12/03 06:36:32;;;;;;;0.30;0.30;;;;;;;2.67;82.09;101018.84;5038412;28;20538;-73
2021/12/03 06:38:58;;;;;;;0.40;0.40;;;;;;;2.65;82.50;101017.81;5037081;28;20022;-71
2021/12/03 06:41:24;;;;;;;0.30;0.30;;;;;;;2.62;82.49;101010.78;5036963;28;20048;-70
2021/12/03 06:43:51;;;;;;;0.40;0.40;;;;;;;2.60;82.82;101007.19;5037887;28;20033;-71
2021/12/03 06:46:17;;;;;;;0.30;0.30;;;;;;;2.61;82.20;101009.88;5038186;28;20315;-73
2021/12/03 06:48:42;;;;;;;0.30;0.30;;;;;;;2.58;81.89;101003.63;5038434;28;20602;-72
2021/12/03 06:51:08;;;;;;;0.30;0.30;;;;;;;2.56;81.62;100995.75;5029812;28;20029;-72
2021/12/03 06:53:42;;;;;;;0.37;0.37;;;;;;;2.57;81.51;101002.72;5027911;28;20026;-72
2021/12/03 06:56:10;;;;;;;0.30;0.30;;;;;;;2.60;80.86;101002.00;5025812;28;20026;-73
2021/12/03 06:58:36;;;;;;;0.27;0.27;;;;;;;2.52;80.42;100998.97;5037008;28;20296;-72
2021/12/03 07:01:02;;;;;;;0.40;0.40;;;;;;;2.51;80.23;101009.19;5029503;28;20295;-70
2021/12/03 07:03:27;;;;;;;0.40;0.40;;;;;;;2.51;79.92;101004.94;5037081;28;20071;-69
2021/12/03 07:05:53;;;;;;;0.30;0.30;;;;;;;2.53;80.15;101017.94;5022685;28;20371;-71
2021/12/03 07:08:18;;;;;;;0.43;0.43;;;;;;;2.45;79.60;101015.75;5024967;28;20145;-73
2021/12/03 07:10:43;;;;;;;0.50;0.50;;;;;;;2.49;78.60;101011.66;5037194;28;20032;-72
2021/12/03 07:13:09;;;;;;;0.40;0.40;;;;;;;2.47;78.45;101010.69;5022191;28;20030;-71
2021/12/03 07:15:35;;;;;;;0.50;0.50;;;;;;;2.45;78.76;101008.00;5020781;28;20025;-75
2021/12/03 07:18:00;;;;;;;0.30;0.30;;;;;;;2.40;78.89;101005.91;5037758;28;20359;-72
2021/12/03 07:20:27;;;;;;;0.30;0.30;;;;;;;2.37;79.15;101008.31;5037402;28;20041;-72
2021/12/03 07:22:54;;;;;;;0.40;0.40;;;;;;;2.36;79.07;101004.81;5028758;28;20110;-71
2021/12/03 07:25:20;;;;;;;0.40;0.40;;;;;;;2.26;79.61;100997.28;5018213;28;20635;-71
2021/12/03 07:27:45;;;;;;;0.40;0.40;;;;;;;2.28;78.66;100995.69;5025578;28;20710;-73
2021/12/03 07:30:13;;;;;;;0.40;0.40;;;;;;;2.30;78.36;100995.00;5037538;28;20280;-69
2021/12/03 07:32:39;;;;;;;0.40;0.40;;;;;;;2.24;79.06;100991.13;5037884;28;20041;-73
2021/12/03 07:35:06;;;;;;;0.30;0.30;;;;;;;2.17;78.70;100989.81;5037651;28;20709;-72
2021/12/03 07:37:31;;;;;;;0.50;0.50;;;;;;;2.14;79.01;100992.22;5031700;28;20032;-75
2021/12/03 07:40:00;;;;;;;0.40;0.40;;;;;;;2.13;79.36;100990.44;5037516;28;20283;-71
2021/12/03 07:42:26;;;;;;;0.40;0.40;;;;;;;2.12;78.93;100989.53;5031577;28;20058;-74
2021/12/03 07:44:51;;;;;;;0.30;0.30;;;;;;;2.12;78.32;100984.34;5018657;28;20741;-73
2021/12/03 07:47:17;;;;;;;0.30;0.30;;;;;;;2.14;78.45;100984.47;5036954;28;20072;-73
2021/12/03 07:49:44;;;;;;;0.40;0.40;;;;;;;2.16;78.45;100983.78;5031448;28;20054;-72
2021/12/03 07:52:12;;;;;;;0.40;0.40;;;;;;;2.14;78.39;100979.28;5017984;28;20121;-73
2021/12/03 07:54:37;;;;;;;0.20;0.20;;;;;;;2.16;78.25;100972.53;5017839;28;20555;-71
2021/12/03 07:57:02;;;;;;;0.40;0.40;;;;;;;2.18;77.74;100976.13;5025740;28;20280;-71
2021/12/03 07:59:28;;;;;;;0.40;0.40;;;;;;;2.17;78.18;100982.97;5036961;28;20030;-71
2021/12/03 08:01:53;;;;;;;0.40;0.40;;;;;;;2.19;77.42;100972.75;5029524;28;20033;-71
2021/12/03 08:04:19;;;;;;;0.40;0.40;;;;;;;2.13;77.94;100973.22;5017251;28;20061;-72
2021/12/03 08:06:45;;;;;;;0.50;0.50;;;;;;;2.15;78.13;100965.56;5027317;28;20111;-65
2021/12/03 08:09:11;;;;;;;0.53;0.53;;;;;;;2.18;78.26;100955.47;5029246;28;20463;-75
2021/12/03 08:11:38;;;;;;;0.30;0.30;;;;;;;2.15;78.58;100957.81;5025931;28;20312;-75
2021/12/03 08:14:03;;;;;;;0.40;0.40;;;;;;;2.16;78.35;100959.59;5000238;28;20030;-75
2021/12/03 08:16:28;;;;;;;0.50;0.50;;;;;;;2.19;78.43;100955.53;5018177;28;20288;-73
2021/12/03 08:18:54;;;;;;;0.40;0.40;;;;;;;2.19;78.73;100946.91;5033956;28;20030;-73
2021/12/03 08:21:19;;;;;;;0.20;0.20;;;;;;;2.16;79.06;100952.78;5036400;28;20387;-66
2021/12/03 08:23:47;;;;;;;0.30;0.30;;;;;;;2.19;78.65;100952.94;5034930;28;20025;-75
2021/12/03 08:26:13;;;;;;;0.53;0.53;;;;;;;2.21;79.07;100945.31;5035395;28;20017;-73
2021/12/03 08:28:38;;;;;;;0.40;0.40;;;;;;;2.19;79.63;100944.31;5028827;28;20363;-72
2021/12/03 08:31:03;;;;;;;0.33;0.33;;;;;;;2.23;79.05;100948.00;5017550;28;20403;-82
2021/12/03 08:33:29;;;;;;;0.40;0.40;;;;;;;2.25;79.06;100930.91;5014339;28;20303;-73
2021/12/03 08:35:54;;;;;;;0.30;0.30;;;;;;;2.30;78.42;100934.69;5036672;28;20029;-75
2021/12/03 08:38:19;;;;;;;0.40;0.40;;;;;;;2.36;78.59;100926.41;5028404;28;20029;-74
2021/12/03 08:40:45;;;;;;;0.27;0.27;;;;;;;2.35;77.93;100932.38;5052297;28;20099;-73
2021/12/03 08:43:10;;;;;;;0.37;0.37;;;;;;;2.46;77.22;100932.25;5036370;28;20061;-76
2021/12/03 08:45:37;;;;;;;0.30;0.30;;;;;;;2.50;77.66;100919.50;5037344;28;20041;-78
2021/12/03 08:48:05;;;;;;;0.37;0.37;;;;;;;2.50;77.45;100928.19;5025167;28;20124;-78
2021/12/03 08:50:33;;;;;;;0.40;0.40;;;;;;;2.52;77.09;100928.25;5016673;28;20317;-75
2021/12/03 08:53:14;;;;;;;0.40;0.40;;;;;;;2.46;76.93;100932.25;5020286;28;20277;-73
2021/12/03 08:55:40;;;;;;;0.30;0.30;;;;;;;2.50;77.54;100911.75;5016038;28;20323;-70
2021/12/03 08:58:07;;;;;;;0.40;0.40;;;;;;;2.53;76.63;100912.84;5024403;28;20275;-75
2021/12/03 09:00:33;;;;;;;0.47;0.47;;;;;;;2.56;76.77;100909.56;5036409;28;20299;-74
2021/12/03 09:02:59;;;;;;;0.30;0.30;;;;;;;2.64;76.32;100907.44;5029037;28;20375;-71
2021/12/03 09:05:30;;;;;;;0.40;0.40;;;;;;;2.67;76.35;100898.16;5016497;28;20367;-77
2021/12/03 09:07:56;;;;;;;0.30;0.30;;;;;;;2.70;75.65;100892.31;5018856;28;20049;-75
2021/12/03 09:10:22;;;;;;;0.30;0.30;;;;;;;2.74;75.55;100889.13;5016546;28;20304;-71
2021/12/03 09:12:47;;;;;;;0.30;0.30;;;;;;;2.71;75.51;100875.97;5025212;28;20111;-81
2021/12/03 09:15:18;;;;;;;0.40;0.40;;;;;;;2.71;75.81;100882.06;5035997;28;20068;-79
2021/12/03 09:18:12;;;;;;;0.33;0.33;;;;;;;2.77;76.08;100873.78;5030273;28;20310;-78
2021/12/03 09:20:51;;;;;;;0.40;0.40;;;;;;;2.82;75.40;100879.22;5035834;28;20374;-69
2021/12/03 09:23:25;;;;;;;0.33;0.33;;;;;;;2.86;75.00;100866.56;5039565;28;20287;-85
2021/12/03 09:26:04;;;;;;;0.40;0.40;;;;;;;2.91;74.61;100863.38;5040857;28;20646;-70
2021/12/03 09:28:29;;;;;;;0.30;0.30;;;;;;;2.94;74.98;100871.31;5054589;28;20272;-80
2021/12/03 09:30:55;;;;;;;0.40;0.40;;;;;;;2.93;75.43;100866.94;5045704;28;20298;-81
2021/12/03 09:33:27;;;;;;;0.30;0.30;;;;;;;2.91;75.68;100868.53;5036807;28;20042;-80
2021/12/03 09:35:59;;;;;;;0.30;0.30;;;;;;;2.91;75.52;100869.41;5023983;28;20025;-88
2021/12/03 09:38:25;;;;;;;0.40;0.40;;;;;;;2.83;76.82;100866.38;5022752;28;20280;-80
2021/12/03 09:40:51;;;;;;;0.30;0.30;;;;;;;2.82;77.10;100864.59;5036558;28;20747;-82
2021/12/03 09:43:16;;;;;;;0.30;0.30;;;;;;;2.81;77.47;100860.22;5038408;28;20322;-80
2021/12/03 09:45:53;;;;;;;0.37;0.37;;;;;;;2.81;76.46;100857.63;5040643;28;20053;-82
2021/12/03 09:48:31;;;;;;;0.40;0.40;;;;;;;2.72;77.20;100847.63;5026141;28;20375;-81
2021/12/03 09:50:57;;;;;;;0.30;0.30;;;;;;;2.65;77.84;100840.31;5027866;28;20287;-85
2021/12/03 09:55:51;;;;;;;0.33;0.33;;;;;;;2.60;77.75;100842.63;5039975;28;20068;-81
2021/12/03 09:58:44;;;;;;;0.30;0.30;;;;;;;2.59;79.09;100832.16;5044144;28;21000;-85
2021/12/03 10:01:16;;;;;;;0.50;0.50;;;;;;;2.58;79.08;100836.47;5042885;28;20025;-76
2021/12/03 10:12:53;;;;;;;0.37;0.37;;;;;;;2.44;80.04;100812.34;5021352;28;20362;-71
2021/12/03 10:18:40;;;;;;;0.30;0.30;;;;;;;2.39;81.33;100818.03;5034302;28;20649;-87
2021/12/03 10:26:52;;;;;;;0.30;0.30;;;;;;;2.37;81.83;100807.59;5031862;28;20287;-87
2021/12/03 10:29:36;;;;;;;0.40;0.40;;;;;;;2.41;82.11;100800.91;5041608;28;20284;-86
2021/12/03 10:34:51;;;;;;;0.30;0.30;;;;;;;2.40;82.77;100778.47;5041507;28;20284;-82
2021/12/03 10:37:51;;;;;;;0.40;0.40;;;;;;;2.43;82.81;100776.06;5029496;28;20378;-77
2021/12/03 10:40:37;;;;;;;0.30;0.30;;;;;;;2.47;82.63;100772.88;5030055;28;20310;-83
2021/12/03 10:57:22;;;;;;;0.20;0.20;;;;;;;2.66;82.34;100764.50;5040750;28;20299;-66
2021/12/03 11:16:10;;;;;;;0.27;0.27;;;;;;;2.95;79.33;100728.22;5040696;28;20567;-85
2021/12/03 11:49:26;;;;;;;0.40;0.40;;;;;;;3.14;78.33;100662.88;5033891;28;20280;-78
2021/12/03 12:01:25;;;;;;;0.40;0.40;;;;;;;3.23;77.40;100623.69;5029049;28;20291;-79
2021/12/03 12:07:36;;;;;;;0.30;0.30;;;;;;;3.32;76.36;100608.66;5025702;28;20280;-88
2021/12/03 13:35:26;;;;;;;0.20;0.20;;;;;;;3.41;80.84;100512.47;5023254;28;20065;-75
2021/12/03 13:56:42;;;;;;;0.20;0.20;;;;;;;3.37;81.50;100524.34;5021736;28;20040;-66
2021/12/03 14:16:02;;;;;;;0.23;0.23;;;;;;;3.37;82.30;100519.19;5032958;28;20029;-73
2021/12/03 14:37:15;;;;;;;0.20;0.20;;;;;;;3.19;84.81;100510.44;5038714;28;20705;-76
2021/12/03 14:45:01;;;;;;;0.20;0.20;;;;;;;3.16;85.36;100493.06;5019383;28;20276;-80
2021/12/03 14:47:54;;;;;;;0.10;0.10;;;;;;;3.14;85.61;100486.94;5020617;28;20040;-76
2021/12/03 14:53:13;;;;;;;0.20;0.20;;;;;;;3.14;85.94;100499.88;5018713;28;20331;-78
2021/12/03 14:55:41;;;;;;;0.10;0.10;;;;;;;3.13;86.09;100483.44;5022470;28;20042;-80
2021/12/03 14:58:38;;;;;;;0.20;0.20;;;;;;;3.20;86.17;100484.66;5027319;28;20294;-74
2021/12/03 15:04:03;;;;;;;0.20;0.20;;;;;;;3.15;86.17;100475.75;5037105;28;20041;-77
2021/12/03 15:09:07;;;;;;;0.20;0.20;;;;;;;3.14;86.18;100469.72;5038371;28;20551;-79
2021/12/03 15:37:17;;;;;;;0.20;0.20;;;;;;;3.23;86.23;100451.16;5028293;28;20278;-80
2021/12/03 16:06:41;;;;;;;0.20;0.20;;;;;;;3.45;84.83;100410.88;5037084;28;20041;-85
2021/12/03 16:09:16;;;;;;;0.20;0.20;;;;;;;3.49;84.68;100404.13;5024032;28;20290;-75
2021/12/03 16:12:02;;;;;;;0.30;0.30;;;;;;;3.50;84.37;100411.09;5039101;28;20299;-79
2021/12/03 16:44:10;;;;;;;0.20;0.20;;;;;;;3.49;84.98;100411.91;5019931;28;20060;-77
2021/12/03 16:46:51;;;;;;;0.10;0.10;;;;;;;3.54;84.84;100403.56;5036600;28;20377;-75
2021/12/03 16:51:50;;;;;;;0.20;0.20;;;;;;;3.52;84.91;100410.38;5018120;28;20262;-66
2021/12/03 16:54:29;;;;;;;0.20;0.20;;;;;;;3.56;85.08;100409.69;5020416;28;20048;-79
2021/12/03 16:56:56;;;;;;;0.20;0.20;;;;;;;3.58;84.97;100399.41;5035069;28;20037;-73
2021/12/03 16:59:22;;;;;;;0.10;0.10;;;;;;;3.57;85.01;100392.47;5034822;28;20029;-64
2021/12/03 17:02:02;;;;;;;0.10;0.10;;;;;;;3.57;85.25;100395.06;5036327;28;20036;-73
2021/12/03 17:04:56;;;;;;;0.20;0.20;;;;;;;3.61;85.33;100380.56;5020096;28;20081;-77
2021/12/03 17:12:32;;;;;;;0.20;0.20;;;;;;;3.63;85.11;100360.78;5036664;28;20334;-78
2021/12/03 17:47:23;;;;;;;0.20;0.20;;;;;;;3.64;84.90;100357.38;5039733;28;20223;-78